Rousseau, South Dakota
Current Conditions -  °F | °C
As of 8:53 PM on Thursday 27 Nov 2014 (Local Time) from KPIR Reporting Station
Overcast Overcast  
Wind Chill: 16°   Ceiling: 10000
Heat Index: 26°   Visibility: 10mi
Dew Point: 17°   Wind: 12mph
Humidity: 69%   Direction: 140°SE
Pressure: 29.89"   Gusts: NA
Location:  44.3693°N, 100.04°W
Report Text: KPIR 280253Z AUTO 14010KT 10SM OVC100 M03/M08 A2989 RMK AO2 SLP148 T10331083 56026
Loading
Personal Weather Stations






























Interactive Weather Map New forecast layout! Learn more

10-Day Weather Forecast

Advertisements
Track Severe Weather on mobile